sensor_id;sensor_type;location;lat;lon;timestamp;temperature;humidity
69679;DHT22;56915;52.046;4.854;2023-04-01T00:01:24;9.70;99.90
69679;DHT22;56915;52.046;4.854;2023-04-01T00:03:51;9.70;99.90
69679;DHT22;56915;52.046;4.854;2023-04-01T00:06:20;9.70;99.90
69679;DHT22;56915;52.046;4.854;2023-04-01T00:08:47;9.70;99.90
69679;DHT22;56915;52.046;4.854;2023-04-01T00:11:15;9.70;99.90
69679;DHT22;56915;52.046;4.854;2023-04-01T00:13:42;9.70;99.90
69679;DHT22;56915;52.046;4.854;2023-04-01T00:16:09;9.60;99.90
69679;DHT22;56915;52.046;4.854;2023-04-01T00:18:49;9.60;99.90
69679;DHT22;56915;52.046;4.854;2023-04-01T00:21:17;9.60;99.90
69679;DHT22;56915;52.046;4.854;2023-04-01T00:23:44;9.50;99.90
69679;DHT22;56915;52.046;4.854;2023-04-01T00:26:11;9.50;99.90
69679;DHT22;56915;52.046;4.854;2023-04-01T00:28:39;9.40;99.90
69679;DHT22;56915;52.046;4.854;2023-04-01T00:31:08;9.40;99.90
69679;DHT22;56915;52.046;4.854;2023-04-01T00:33:36;9.40;99.90
69679;DHT22;56915;52.046;4.854;2023-04-01T00:36:21;9.40;99.90
69679;DHT22;56915;52.046;4.854;2023-04-01T00:38:49;9.30;99.90
69679;DHT22;56915;52.046;4.854;2023-04-01T00:41:18;9.30;99.90
69679;DHT22;56915;52.046;4.854;2023-04-01T00:43:52;9.30;99.90
69679;DHT22;56915;52.046;4.854;2023-04-01T00:46:19;9.30;99.90
69679;DHT22;56915;52.046;4.854;2023-04-01T00:48:55;9.30;99.90
69679;DHT22;56915;52.046;4.854;2023-04-01T00:51:26;9.30;99.90
69679;DHT22;56915;52.046;4.854;2023-04-01T00:53:56;9.20;99.90
69679;DHT22;56915;52.046;4.854;2023-04-01T00:56:57;9.30;99.90
69679;DHT22;56915;52.046;4.854;2023-04-01T00:59:44;9.20;99.90
69679;DHT22;56915;52.046;4.854;2023-04-01T01:02:14;9.20;99.90
69679;DHT22;56915;52.046;4.854;2023-04-01T01:04:42;9.20;99.90
69679;DHT22;56915;52.046;4.854;2023-04-01T01:10:06;9.20;99.90
69679;DHT22;56915;52.046;4.854;2023-04-01T01:15:36;9.20;99.90
69679;DHT22;56915;52.046;4.854;2023-04-01T01:29:22;9.20;99.90
69679;DHT22;56915;52.046;4.854;2023-04-01T01:32:04;9.20;99.90
69679;DHT22;56915;52.046;4.854;2023-04-01T01:37:16;9.20;99.90
69679;DHT22;56915;52.046;4.854;2023-04-01T01:39:50;9.20;99.90
69679;DHT22;56915;52.046;4.854;2023-04-01T01:42:19;9.10;99.90
69679;DHT22;56915;52.046;4.854;2023-04-01T01:44:47;9.10;99.90
69679;DHT22;56915;52.046;4.854;2023-04-01T01:47:16;9.20;99.90
69679;DHT22;56915;52.046;4.854;2023-04-01T01:49:44;9.10;99.90
69679;DHT22;56915;52.046;4.854;2023-04-01T01:52:13;9.10;99.90
69679;DHT22;56915;52.046;4.854;2023-04-01T01:54:48;9.10;99.90
69679;DHT22;56915;52.046;4.854;2023-04-01T01:57:15;9.10;99.90
69679;DHT22;56915;52.046;4.854;2023-04-01T01:59:44;9.10;99.90
69679;DHT22;56915;52.046;4.854;2023-04-01T02:02:13;9.10;99.90
69679;DHT22;56915;52.046;4.854;2023-04-01T02:04:43;9.10;99.90
69679;DHT22;56915;52.046;4.854;2023-04-01T02:07:18;9.10;99.90
69679;DHT22;56915;52.046;4.854;2023-04-01T02:09:47;9.10;99.90
69679;DHT22;56915;52.046;4.854;2023-04-01T02:12:15;9.10;99.90
69679;DHT22;56915;52.046;4.854;2023-04-01T02:14:50;9.10;99.90
69679;DHT22;56915;52.046;4.854;2023-04-01T02:17:20;9.10;99.90
69679;DHT22;56915;52.046;4.854;2023-04-01T02:22:24;9.10;99.90
69679;DHT22;56915;52.046;4.854;2023-04-01T02:24:58;9.10;99.90
69679;DHT22;56915;52.046;4.854;2023-04-01T02:27:26;9.10;99.90
69679;DHT22;56915;52.046;4.854;2023-04-01T02:29:53;9.10;99.90
69679;DHT22;56915;52.046;4.854;2023-04-01T02:32:20;9.10;99.90
69679;DHT22;56915;52.046;4.854;2023-04-01T02:34:47;9.10;99.90
69679;DHT22;56915;52.046;4.854;2023-04-01T02:37:15;9.10;99.90
69679;DHT22;56915;52.046;4.854;2023-04-01T02:39:42;9.10;99.90
69679;DHT22;56915;52.046;4.854;2023-04-01T02:42:09;9.10;99.90
69679;DHT22;56915;52.046;4.854;2023-04-01T02:44:37;9.10;99.90
69679;DHT22;56915;52.046;4.854;2023-04-01T02:47:04;9.10;99.90
69679;DHT22;56915;52.046;4.854;2023-04-01T02:49:31;9.10;99.90
69679;DHT22;56915;52.046;4.854;2023-04-01T02:51:57;9.10;99.90
69679;DHT22;56915;52.046;4.854;2023-04-01T02:54:24;9.10;99.90
69679;DHT22;56915;52.046;4.854;2023-04-01T02:56:51;9.10;99.90
69679;DHT22;56915;52.046;4.854;2023-04-01T02:59:18;9.20;99.90
69679;DHT22;56915;52.046;4.854;2023-04-01T03:01:45;9.20;99.90
69679;DHT22;56915;52.046;4.854;2023-04-01T03:04:12;9.20;99.90
69679;DHT22;56915;52.046;4.854;2023-04-01T03:06:38;9.20;99.90
69679;DHT22;56915;52.046;4.854;2023-04-01T03:09:05;9.20;99.90
69679;DHT22;56915;52.046;4.854;2023-04-01T03:11:32;9.20;99.90
69679;DHT22;56915;52.046;4.854;2023-04-01T03:13:59;9.20;99.90
69679;DHT22;56915;52.046;4.854;2023-04-01T03:16:26;9.20;99.90
69679;DHT22;56915;52.046;4.854;2023-04-01T03:18:52;9.30;99.90
69679;DHT22;56915;52.046;4.854;2023-04-01T03:21:22;9.30;99.90
69679;DHT22;56915;52.046;4.854;2023-04-01T03:23:50;9.30;99.90
69679;DHT22;56915;52.046;4.854;2023-04-01T03:26:17;9.30;99.90
69679;DHT22;56915;52.046;4.854;2023-04-01T03:28:44;9.40;99.90
69679;DHT22;56915;52.046;4.854;2023-04-01T03:31:11;9.40;99.90
69679;DHT22;56915;52.046;4.854;2023-04-01T03:33:38;9.50;99.90
69679;DHT22;56915;52.046;4.854;2023-04-01T03:36:05;9.50;99.90
69679;DHT22;56915;52.046;4.854;2023-04-01T03:38:34;9.50;99.90
69679;DHT22;56915;52.046;4.854;2023-04-01T03:41:01;9.50;99.90
69679;DHT22;56915;52.046;4.854;2023-04-01T03:43:28;9.50;99.90
69679;DHT22;56915;52.046;4.854;2023-04-01T03:45:55;9.60;99.90
69679;DHT22;56915;52.046;4.854;2023-04-01T03:48:24;9.50;99.90
69679;DHT22;56915;52.046;4.854;2023-04-01T03:50:52;9.60;99.90
69679;DHT22;56915;52.046;4.854;2023-04-01T03:53:19;9.60;99.90
69679;DHT22;56915;52.046;4.854;2023-04-01T03:55:46;9.60;99.90
69679;DHT22;56915;52.046;4.854;2023-04-01T03:58:13;9.60;99.90
69679;DHT22;56915;52.046;4.854;2023-04-01T04:00:40;9.60;99.90
69679;DHT22;56915;52.046;4.854;2023-04-01T04:03:07;9.60;99.90
69679;DHT22;56915;52.046;4.854;2023-04-01T04:05:35;9.60;99.90
69679;DHT22;56915;52.046;4.854;2023-04-01T04:08:02;9.60;99.90
69679;DHT22;56915;52.046;4.854;2023-04-01T04:10:29;9.60;99.90
69679;DHT22;56915;52.046;4.854;2023-04-01T04:12:56;9.60;99.90
69679;DHT22;56915;52.046;4.854;2023-04-01T04:15:22;9.60;99.90
69679;DHT22;56915;52.046;4.854;2023-04-01T04:17:49;9.50;99.90
69679;DHT22;56915;52.046;4.854;2023-04-01T04:20:17;9.50;99.90
69679;DHT22;56915;52.046;4.854;2023-04-01T04:22:44;9.50;99.90
69679;DHT22;56915;52.046;4.854;2023-04-01T04:25:10;9.50;99.90
69679;DHT22;56915;52.046;4.854;2023-04-01T04:27:37;9.50;99.90
69679;DHT22;56915;52.046;4.854;2023-04-01T04:30:06;9.50;99.90
69679;DHT22;56915;52.046;4.854;2023-04-01T04:32:33;9.50;99.90
69679;DHT22;56915;52.046;4.854;2023-04-01T04:35:00;9.50;99.90
69679;DHT22;56915;52.046;4.854;2023-04-01T04:37:27;9.50;99.90
69679;DHT22;56915;52.046;4.854;2023-04-01T04:40:01;9.50;99.90
69679;DHT22;56915;52.046;4.854;2023-04-01T04:42:28;9.60;99.90
69679;DHT22;56915;52.046;4.854;2023-04-01T04:44:55;9.60;99.90
69679;DHT22;56915;52.046;4.854;2023-04-01T04:47:21;9.60;99.90
69679;DHT22;56915;52.046;4.854;2023-04-01T04:49:48;9.60;99.90
69679;DHT22;56915;52.046;4.854;2023-04-01T04:52:15;9.60;99.90
69679;DHT22;56915;52.046;4.854;2023-04-01T04:54:42;9.60;99.90
69679;DHT22;56915;52.046;4.854;2023-04-01T04:57:08;9.60;99.90
69679;DHT22;56915;52.046;4.854;2023-04-01T04:59:35;9.60;99.90
69679;DHT22;56915;52.046;4.854;2023-04-01T05:02:03;9.60;99.90
69679;DHT22;56915;52.046;4.854;2023-04-01T05:04:34;9.60;99.90
69679;DHT22;56915;52.046;4.854;2023-04-01T05:07:01;9.60;99.90
69679;DHT22;56915;52.046;4.854;2023-04-01T05:09:28;9.60;99.90
69679;DHT22;56915;52.046;4.854;2023-04-01T05:11:55;9.60;99.90
69679;DHT22;56915;52.046;4.854;2023-04-01T05:14:22;9.60;99.90
69679;DHT22;56915;52.046;4.854;2023-04-01T05:16:48;9.60;99.90
69679;DHT22;56915;52.046;4.854;2023-04-01T05:19:17;9.60;99.90
69679;DHT22;56915;52.046;4.854;2023-04-01T05:21:43;9.60;99.90
69679;DHT22;56915;52.046;4.854;2023-04-01T05:24:10;9.60;99.90
69679;DHT22;56915;52.046;4.854;2023-04-01T05:26:37;9.60;99.90
69679;DHT22;56915;52.046;4.854;2023-04-01T05:29:04;9.60;99.90
69679;DHT22;56915;52.046;4.854;2023-04-01T05:31:31;9.50;99.90
69679;DHT22;56915;52.046;4.854;2023-04-01T05:33:58;9.40;99.90
69679;DHT22;56915;52.046;4.854;2023-04-01T05:36:25;9.40;99.90
69679;DHT22;56915;52.046;4.854;2023-04-01T05:38:55;9.40;99.90
69679;DHT22;56915;52.046;4.854;2023-04-01T05:41:22;9.40;99.90
69679;DHT22;56915;52.046;4.854;2023-04-01T05:43:48;9.40;99.90
69679;DHT22;56915;52.046;4.854;2023-04-01T05:46:15;9.40;99.90
69679;DHT22;56915;52.046;4.854;2023-04-01T05:48:42;9.40;99.90
69679;DHT22;56915;52.046;4.854;2023-04-01T05:51:15;9.50;99.90
69679;DHT22;56915;52.046;4.854;2023-04-01T05:53:42;9.50;99.90
69679;DHT22;56915;52.046;4.854;2023-04-01T05:56:09;9.60;99.90
69679;DHT22;56915;52.046;4.854;2023-04-01T05:58:37;9.60;99.90
69679;DHT22;56915;52.046;4.854;2023-04-01T06:01:10;9.70;99.90
69679;DHT22;56915;52.046;4.854;2023-04-01T06:03:42;9.70;99.90
69679;DHT22;56915;52.046;4.854;2023-04-01T06:06:14;9.70;99.90
69679;DHT22;56915;52.046;4.854;2023-04-01T06:08:42;9.80;99.90
69679;DHT22;56915;52.046;4.854;2023-04-01T06:19:27;9.70;99.90
69679;DHT22;56915;52.046;4.854;2023-04-01T06:27:56;9.60;99.90
69679;DHT22;56915;52.046;4.854;2023-04-01T06:30:31;9.60;99.90
69679;DHT22;56915;52.046;4.854;2023-04-01T06:38:53;9.50;99.90
69679;DHT22;56915;52.046;4.854;2023-04-01T06:44:16;9.40;99.90
69679;DHT22;56915;52.046;4.854;2023-04-01T06:46:50;9.40;99.90
69679;DHT22;56915;52.046;4.854;2023-04-01T06:49:41;9.40;99.90
69679;DHT22;56915;52.046;4.854;2023-04-01T06:52:19;9.50;99.90
69679;DHT22;56915;52.046;4.854;2023-04-01T06:55:09;9.50;99.90
69679;DHT22;56915;52.046;4.854;2023-04-01T06:57:46;9.60;99.90
69679;DHT22;56915;52.046;4.854;2023-04-01T07:00:22;9.60;99.90
69679;DHT22;56915;52.046;4.854;2023-04-01T07:03:06;9.60;99.90
69679;DHT22;56915;52.046;4.854;2023-04-01T07:05:37;9.60;99.90
69679;DHT22;56915;52.046;4.854;2023-04-01T07:08:11;9.70;99.90
69679;DHT22;56915;52.046;4.854;2023-04-01T07:10:55;9.70;99.90
69679;DHT22;56915;52.046;4.854;2023-04-01T07:13:39;9.70;99.90
69679;DHT22;56915;52.046;4.854;2023-04-01T07:16:43;9.80;99.90
69679;DHT22;56915;52.046;4.854;2023-04-01T07:19:29;9.80;99.90
69679;DHT22;56915;52.046;4.854;2023-04-01T07:24:44;9.90;99.90
69679;DHT22;56915;52.046;4.854;2023-04-01T07:27:13;10.00;99.90
69679;DHT22;56915;52.046;4.854;2023-04-01T07:29:40;10.00;99.90
69679;DHT22;56915;52.046;4.854;2023-04-01T07:40:12;10.10;99.90
69679;DHT22;56915;52.046;4.854;2023-04-01T07:42:55;10.10;99.90
69679;DHT22;56915;52.046;4.854;2023-04-01T07:48:53;10.10;99.90
69679;DHT22;56915;52.046;4.854;2023-04-01T07:59:53;10.10;99.90
69679;DHT22;56915;52.046;4.854;2023-04-01T08:05:29;10.00;99.90
69679;DHT22;56915;52.046;4.854;2023-04-01T08:10:54;10.10;99.90
69679;DHT22;56915;52.046;4.854;2023-04-01T08:21:38;10.00;99.90
69679;DHT22;56915;52.046;4.854;2023-04-01T08:24:34;10.00;99.90
69679;DHT22;56915;52.046;4.854;2023-04-01T08:27:21;10.10;99.90
69679;DHT22;56915;52.046;4.854;2023-04-01T08:30:16;10.20;99.90
69679;DHT22;56915;52.046;4.854;2023-04-01T08:36:12;10.30;99.90
69679;DHT22;56915;52.046;4.854;2023-04-01T08:39:18;10.40;99.90
69679;DHT22;56915;52.046;4.854;2023-04-01T08:47:46;10.40;99.90
69679;DHT22;56915;52.046;4.854;2023-04-01T08:50:42;10.30;99.90
69679;DHT22;56915;52.046;4.854;2023-04-01T09:02:30;10.30;99.90
69679;DHT22;56915;52.046;4.854;2023-04-01T09:05:25;10.10;99.90
69679;DHT22;56915;52.046;4.854;2023-04-01T09:16:13;10.10;99.90
69679;DHT22;56915;52.046;4.854;2023-04-01T09:27:29;10.50;99.90
69679;DHT22;56915;52.046;4.854;2023-04-01T09:30:20;10.40;99.90
69679;DHT22;56915;52.046;4.854;2023-04-01T09:36:18;10.40;99.90
69679;DHT22;56915;52.046;4.854;2023-04-01T09:44:33;10.40;99.90
69679;DHT22;56915;52.046;4.854;2023-04-01T09:50:27;10.40;99.90
69679;DHT22;56915;52.046;4.854;2023-04-01T10:21:17;10.30;99.90
69679;DHT22;56915;52.046;4.854;2023-04-01T10:57:28;11.20;99.90
69679;DHT22;56915;52.046;4.854;2023-04-01T11:06:48;11.00;99.90
69679;DHT22;56915;52.046;4.854;2023-04-01T11:24:27;10.60;99.90
69679;DHT22;56915;52.046;4.854;2023-04-01T11:27:22;10.60;99.90
69679;DHT22;56915;52.046;4.854;2023-04-01T11:30:33;10.70;99.90
69679;DHT22;56915;52.046;4.854;2023-04-01T11:33:31;10.80;99.90
69679;DHT22;56915;52.046;4.854;2023-04-01T11:41:38;11.00;99.90
69679;DHT22;56915;52.046;4.854;2023-04-01T11:44:26;10.90;99.90
69679;DHT22;56915;52.046;4.854;2023-04-01T11:50:21;10.90;99.90
69679;DHT22;56915;52.046;4.854;2023-04-01T12:01:12;11.10;99.90
69679;DHT22;56915;52.046;4.854;2023-04-01T12:06:36;11.60;99.90
69679;DHT22;56915;52.046;4.854;2023-04-01T12:12:16;12.10;99.90
69679;DHT22;56915;52.046;4.854;2023-04-01T12:14:59;12.40;99.90
69679;DHT22;56915;52.046;4.854;2023-04-01T12:17:47;12.50;99.90
69679;DHT22;56915;52.046;4.854;2023-04-01T12:20:28;12.30;99.90
69679;DHT22;56915;52.046;4.854;2023-04-01T12:23:12;12.10;99.90
69679;DHT22;56915;52.046;4.854;2023-04-01T12:45:03;11.10;99.90
69679;DHT22;56915;52.046;4.854;2023-04-01T12:50:42;11.50;99.90
69679;DHT22;56915;52.046;4.854;2023-04-01T12:55:52;11.40;99.90
69679;DHT22;56915;52.046;4.854;2023-04-01T13:04:29;11.10;99.90
69679;DHT22;56915;52.046;4.854;2023-04-01T13:26:17;11.70;99.90
69679;DHT22;56915;52.046;4.854;2023-04-01T13:28:53;11.80;99.90
69679;DHT22;56915;52.046;4.854;2023-04-01T13:34:32;11.70;99.90
69679;DHT22;56915;52.046;4.854;2023-04-01T13:37:05;11.70;99.90
69679;DHT22;56915;52.046;4.854;2023-04-01T13:39:47;11.60;99.90
69679;DHT22;56915;52.046;4.854;2023-04-01T13:53:30;11.40;99.90
69679;DHT22;56915;52.046;4.854;2023-04-01T13:56:07;11.50;99.90
69679;DHT22;56915;52.046;4.854;2023-04-01T14:04:13;11.70;99.90
69679;DHT22;56915;52.046;4.854;2023-04-01T14:20:32;11.00;99.90
69679;DHT22;56915;52.046;4.854;2023-04-01T14:25:58;11.00;99.90
69679;DHT22;56915;52.046;4.854;2023-04-01T14:31:34;11.10;99.90
69679;DHT22;56915;52.046;4.854;2023-04-01T14:52:05;10.60;99.90
69679;DHT22;56915;52.046;4.854;2023-04-01T14:54:37;10.50;99.90
69679;DHT22;56915;52.046;4.854;2023-04-01T14:57:14;10.50;99.90
69679;DHT22;56915;52.046;4.854;2023-04-01T14:59:49;10.50;99.90
69679;DHT22;56915;52.046;4.854;2023-04-01T15:02:55;10.40;99.90
69679;DHT22;56915;52.046;4.854;2023-04-01T15:08:27;10.40;99.90
69679;DHT22;56915;52.046;4.854;2023-04-01T15:33:41;10.50;99.90
69679;DHT22;56915;52.046;4.854;2023-04-01T15:39:24;10.50;99.90
69679;DHT22;56915;52.046;4.854;2023-04-01T15:42:07;10.50;99.90
69679;DHT22;56915;52.046;4.854;2023-04-01T15:50:24;10.50;99.90
69679;DHT22;56915;52.046;4.854;2023-04-01T16:00:09;10.50;99.90
69679;DHT22;56915;52.046;4.854;2023-04-01T16:02:39;10.50;99.90
69679;DHT22;56915;52.046;4.854;2023-04-01T16:11:09;10.50;99.90
69679;DHT22;56915;52.046;4.854;2023-04-01T16:19:51;10.30;99.90
69679;DHT22;56915;52.046;4.854;2023-04-01T16:22:46;10.20;99.90
69679;DHT22;56915;52.046;4.854;2023-04-01T16:31:11;10.10;99.90
69679;DHT22;56915;52.046;4.854;2023-04-01T16:37:00;10.00;99.90
69679;DHT22;56915;52.046;4.854;2023-04-01T16:42:44;9.90;99.90
69679;DHT22;56915;52.046;4.854;2023-04-01T16:45:32;9.80;99.90
69679;DHT22;56915;52.046;4.854;2023-04-01T16:48:15;9.80;99.90
69679;DHT22;56915;52.046;4.854;2023-04-01T16:50:58;9.80;99.90
69679;DHT22;56915;52.046;4.854;2023-04-01T16:53:36;9.80;99.90
69679;DHT22;56915;52.046;4.854;2023-04-01T16:56:16;9.80;99.90
69679;DHT22;56915;52.046;4.854;2023-04-01T17:01:51;9.80;99.90
69679;DHT22;56915;52.046;4.854;2023-04-01T17:04:45;9.90;99.90
69679;DHT22;56915;52.046;4.854;2023-04-01T17:07:32;9.90;99.90
69679;DHT22;56915;52.046;4.854;2023-04-01T17:15:53;9.80;99.90
69679;DHT22;56915;52.046;4.854;2023-04-01T17:21:20;9.80;99.90
69679;DHT22;56915;52.046;4.854;2023-04-01T17:27:01;9.70;99.90
69679;DHT22;56915;52.046;4.854;2023-04-01T17:29:57;9.70;99.90
69679;DHT22;56915;52.046;4.854;2023-04-01T17:32:47;9.70;99.90
69679;DHT22;56915;52.046;4.854;2023-04-01T17:35:29;9.70;99.90
69679;DHT22;56915;52.046;4.854;2023-04-01T17:41:01;9.60;99.90
69679;DHT22;56915;52.046;4.854;2023-04-01T17:49:39;9.50;99.90
69679;DHT22;56915;52.046;4.854;2023-04-01T17:55:14;9.50;99.90
69679;DHT22;56915;52.046;4.854;2023-04-01T17:58:06;9.40;99.90
69679;DHT22;56915;52.046;4.854;2023-04-01T18:19:56;9.00;99.90
69679;DHT22;56915;52.046;4.854;2023-04-01T18:22:28;9.00;99.90
69679;DHT22;56915;52.046;4.854;2023-04-01T18:25:15;9.00;99.90
69679;DHT22;56915;52.046;4.854;2023-04-01T18:27:52;9.00;99.90
69679;DHT22;56915;52.046;4.854;2023-04-01T18:30:29;9.00;99.90
69679;DHT22;56915;52.046;4.854;2023-04-01T18:33:02;9.00;99.90
69679;DHT22;56915;52.046;4.854;2023-04-01T18:38:33;9.00;99.90
69679;DHT22;56915;52.046;4.854;2023-04-01T18:41:22;9.00;99.90
69679;DHT22;56915;52.046;4.854;2023-04-01T18:46:59;8.90;99.90
69679;DHT22;56915;52.046;4.854;2023-04-01T18:49:33;8.90;99.90
69679;DHT22;56915;52.046;4.854;2023-04-01T18:57:52;8.90;99.90
69679;DHT22;56915;52.046;4.854;2023-04-01T19:00:25;8.90;99.90
69679;DHT22;56915;52.046;4.854;2023-04-01T19:03:05;8.90;99.90
69679;DHT22;56915;52.046;4.854;2023-04-01T19:05:39;8.90;99.90
69679;DHT22;56915;52.046;4.854;2023-04-01T19:38:04;8.60;99.90
69679;DHT22;56915;52.046;4.854;2023-04-01T19:40:46;8.60;99.90
69679;DHT22;56915;52.046;4.854;2023-04-01T19:46:07;8.60;99.90
69679;DHT22;56915;52.046;4.854;2023-04-01T19:57:26;8.50;99.90
69679;DHT22;56915;52.046;4.854;2023-04-01T20:02:44;8.40;99.90
69679;DHT22;56915;52.046;4.854;2023-04-01T20:08:11;8.50;99.90
69679;DHT22;56915;52.046;4.854;2023-04-01T20:11:00;8.50;99.90
69679;DHT22;56915;52.046;4.854;2023-04-01T20:16:13;8.40;99.90
69679;DHT22;56915;52.046;4.854;2023-04-01T20:18:59;8.40;99.90
69679;DHT22;56915;52.046;4.854;2023-04-01T20:24:21;8.40;99.90
69679;DHT22;56915;52.046;4.854;2023-04-01T20:27:01;8.30;99.90
69679;DHT22;56915;52.046;4.854;2023-04-01T20:32:40;8.30;99.90
69679;DHT22;56915;52.046;4.854;2023-04-01T20:35:33;8.30;99.90
69679;DHT22;56915;52.046;4.854;2023-04-01T20:38:29;8.20;99.90
69679;DHT22;56915;52.046;4.854;2023-04-01T20:41:20;8.20;99.90
69679;DHT22;56915;52.046;4.854;2023-04-01T20:47:16;8.20;99.90
69679;DHT22;56915;52.046;4.854;2023-04-01T20:57:38;8.00;99.90
69679;DHT22;56915;52.046;4.854;2023-04-01T21:00:31;8.00;99.90
69679;DHT22;56915;52.046;4.854;2023-04-01T21:09:07;7.80;99.90
69679;DHT22;56915;52.046;4.854;2023-04-01T21:58:18;7.70;99.90
69679;DHT22;56915;52.046;4.854;2023-04-01T22:06:48;7.60;99.90
69679;DHT22;56915;52.046;4.854;2023-04-01T22:12:02;7.60;99.90
69679;DHT22;56915;52.046;4.854;2023-04-01T22:20:45;7.50;99.90
69679;DHT22;56915;52.046;4.854;2023-04-01T22:28:11;7.50;99.90
69679;DHT22;56915;52.046;4.854;2023-04-01T22:30:42;7.50;99.90
69679;DHT22;56915;52.046;4.854;2023-04-01T22:33:42;7.50;99.90
69679;DHT22;56915;52.046;4.854;2023-04-01T22:39:09;7.50;99.90
69679;DHT22;56915;52.046;4.854;2023-04-01T22:41:54;7.50;99.90
69679;DHT22;56915;52.046;4.854;2023-04-01T22:44:38;7.50;99.90
69679;DHT22;56915;52.046;4.854;2023-04-01T22:47:28;7.40;99.90
69679;DHT22;56915;52.046;4.854;2023-04-01T22:50:10;7.40;99.90
69679;DHT22;56915;52.046;4.854;2023-04-01T22:52:42;7.40;99.90
69679;DHT22;56915;52.046;4.854;2023-04-01T22:58:09;7.40;99.90
69679;DHT22;56915;52.046;4.854;2023-04-01T23:00:50;7.40;99.90
69679;DHT22;56915;52.046;4.854;2023-04-01T23:03:21;7.40;99.90
69679;DHT22;56915;52.046;4.854;2023-04-01T23:05:54;7.40;99.90
69679;DHT22;56915;52.046;4.854;2023-04-01T23:11:17;7.30;99.90
69679;DHT22;56915;52.046;4.854;2023-04-01T23:13:49;7.30;99.90
69679;DHT22;56915;52.046;4.854;2023-04-01T23:16:28;7.30;99.90
69679;DHT22;56915;52.046;4.854;2023-04-01T23:24:25;7.30;99.90
69679;DHT22;56915;52.046;4.854;2023-04-01T23:27:08;7.30;99.90
69679;DHT22;56915;52.046;4.854;2023-04-01T23:29:38;7.30;99.90
69679;DHT22;56915;52.046;4.854;2023-04-01T23:32:19;7.30;99.90
69679;DHT22;56915;52.046;4.854;2023-04-01T23:34:53;7.30;99.90
69679;DHT22;56915;52.046;4.854;2023-04-01T23:37:21;7.30;99.90
69679;DHT22;56915;52.046;4.854;2023-04-01T23:39:53;7.20;99.90
69679;DHT22;56915;52.046;4.854;2023-04-01T23:42:38;7.20;99.90
69679;DHT22;56915;52.046;4.854;2023-04-01T23:45:15;7.20;99.90
69679;DHT22;56915;52.046;4.854;2023-04-01T23:47:48;7.20;99.90
69679;DHT22;56915;52.046;4.854;2023-04-01T23:50:19;7.20;99.90
69679;DHT22;56915;52.046;4.854;2023-04-01T23:52:51;7.20;99.90
69679;DHT22;56915;52.046;4.854;2023-04-01T23:55:27;7.20;99.90
